sensor_id;sensor_type;location;lat;lon;timestamp;temperature;humidity
70366;DHT22;57787;48.216;12.396;2022-12-15T00:02:37;0.40;90.20
70366;DHT22;57787;48.216;12.396;2022-12-15T00:05:23;0.40;90.20
70366;DHT22;57787;48.216;12.396;2022-12-15T00:08:15;0.40;90.10
70366;DHT22;57787;48.216;12.396;2022-12-15T00:11:02;0.40;90.00
70366;DHT22;57787;48.216;12.396;2022-12-15T00:13:47;0.40;89.80
70366;DHT22;57787;48.216;12.396;2022-12-15T00:16:32;0.40;89.80
70366;DHT22;57787;48.216;12.396;2022-12-15T00:19:18;0.30;89.40
70366;DHT22;57787;48.216;12.396;2022-12-15T00:22:04;0.30;89.50
70366;DHT22;57787;48.216;12.396;2022-12-15T00:24:51;0.30;89.40
70366;DHT22;57787;48.216;12.396;2022-12-15T00:27:38;0.30;89.50
70366;DHT22;57787;48.216;12.396;2022-12-15T00:30:23;0.30;89.50
70366;DHT22;57787;48.216;12.396;2022-12-15T00:33:15;0.30;89.50
70366;DHT22;57787;48.216;12.396;2022-12-15T00:36:01;0.30;89.70
70366;DHT22;57787;48.216;12.396;2022-12-15T00:38:46;0.30;89.70
70366;DHT22;57787;48.216;12.396;2022-12-15T00:41:16;0.30;89.90
70366;DHT22;57787;48.216;12.396;2022-12-15T00:43:47;0.20;89.70
70366;DHT22;57787;48.216;12.396;2022-12-15T00:46:15;0.30;89.80
70366;DHT22;57787;48.216;12.396;2022-12-15T00:49:01;0.30;89.80
70366;DHT22;57787;48.216;12.396;2022-12-15T00:51:30;0.30;89.60
70366;DHT22;57787;48.216;12.396;2022-12-15T00:54:17;0.20;89.60
70366;DHT22;57787;48.216;12.396;2022-12-15T00:57:02;0.30;89.50
70366;DHT22;57787;48.216;12.396;2022-12-15T00:59:58;0.20;89.50
70366;DHT22;57787;48.216;12.396;2022-12-15T01:02:43;0.20;89.40
70366;DHT22;57787;48.216;12.396;2022-12-15T01:05:29;0.20;89.40
70366;DHT22;57787;48.216;12.396;2022-12-15T01:08:15;0.20;89.30
70366;DHT22;57787;48.216;12.396;2022-12-15T01:11:00;0.20;89.50
70366;DHT22;57787;48.216;12.396;2022-12-15T01:13:46;0.20;89.20
70366;DHT22;57787;48.216;12.396;2022-12-15T01:16:32;0.10;89.30
70366;DHT22;57787;48.216;12.396;2022-12-15T01:19:20;0.10;89.20
70366;DHT22;57787;48.216;12.396;2022-12-15T01:22:09;0.10;89.20
70366;DHT22;57787;48.216;12.396;2022-12-15T01:24:36;0.10;89.20
70366;DHT22;57787;48.216;12.396;2022-12-15T01:27:03;0.10;89.40
70366;DHT22;57787;48.216;12.396;2022-12-15T01:29:29;0.10;89.50
70366;DHT22;57787;48.216;12.396;2022-12-15T01:31:57;0.10;89.60
70366;DHT22;57787;48.216;12.396;2022-12-15T01:34:24;0.10;89.50
70366;DHT22;57787;48.216;12.396;2022-12-15T01:36:52;0.10;89.60
70366;DHT22;57787;48.216;12.396;2022-12-15T01:39:19;0.10;89.50
70366;DHT22;57787;48.216;12.396;2022-12-15T01:41:46;0.10;89.60
70366;DHT22;57787;48.216;12.396;2022-12-15T01:44:20;0.10;89.50
70366;DHT22;57787;48.216;12.396;2022-12-15T01:46:53;0.00;89.50
70366;DHT22;57787;48.216;12.396;2022-12-15T01:49:26;0.00;89.50
70366;DHT22;57787;48.216;12.396;2022-12-15T01:52:01;0.00;89.40
70366;DHT22;57787;48.216;12.396;2022-12-15T01:54:40;0.00;89.40
70366;DHT22;57787;48.216;12.396;2022-12-15T01:57:13;0.00;89.40
70366;DHT22;57787;48.216;12.396;2022-12-15T01:59:45;0.00;89.50
70366;DHT22;57787;48.216;12.396;2022-12-15T02:02:18;0.00;89.50
70366;DHT22;57787;48.216;12.396;2022-12-15T02:04:49;0.00;89.50
70366;DHT22;57787;48.216;12.396;2022-12-15T02:07:17;0.00;89.60
70366;DHT22;57787;48.216;12.396;2022-12-15T02:09:46;0.00;89.60
70366;DHT22;57787;48.216;12.396;2022-12-15T02:26:25;0.00;89.30
70366;DHT22;57787;48.216;12.396;2022-12-15T02:29:20;0.00;89.40
70366;DHT22;57787;48.216;12.396;2022-12-15T02:32:05;0.00;89.40
70366;DHT22;57787;48.216;12.396;2022-12-15T02:34:44;0.00;89.50
70366;DHT22;57787;48.216;12.396;2022-12-15T02:37:17;-0.10;89.50
70366;DHT22;57787;48.216;12.396;2022-12-15T02:39:46;0.00;89.50
70366;DHT22;57787;48.216;12.396;2022-12-15T02:42:13;-0.10;89.40
70366;DHT22;57787;48.216;12.396;2022-12-15T02:44:50;-0.10;89.20
70366;DHT22;57787;48.216;12.396;2022-12-15T02:53:33;-0.30;88.30
70366;DHT22;57787;48.216;12.396;2022-12-15T03:01:36;-0.30;88.60
70366;DHT22;57787;48.216;12.396;2022-12-15T03:04:07;-0.30;88.60
70366;DHT22;57787;48.216;12.396;2022-12-15T03:06:35;-0.30;88.70
70366;DHT22;57787;48.216;12.396;2022-12-15T03:09:02;-0.30;88.60
70366;DHT22;57787;48.216;12.396;2022-12-15T03:11:29;-0.40;88.60
70366;DHT22;57787;48.216;12.396;2022-12-15T03:13:56;-0.40;88.50
70366;DHT22;57787;48.216;12.396;2022-12-15T03:16:23;-0.40;88.60
70366;DHT22;57787;48.216;12.396;2022-12-15T03:18:51;-0.40;88.60
70366;DHT22;57787;48.216;12.396;2022-12-15T03:21:18;-0.40;88.80
70366;DHT22;57787;48.216;12.396;2022-12-15T03:23:45;-0.50;88.70
70366;DHT22;57787;48.216;12.396;2022-12-15T03:26:11;-0.50;88.70
70366;DHT22;57787;48.216;12.396;2022-12-15T03:28:38;-0.50;88.80
70366;DHT22;57787;48.216;12.396;2022-12-15T03:31:06;-0.50;88.80
70366;DHT22;57787;48.216;12.396;2022-12-15T03:33:35;-0.50;88.80
70366;DHT22;57787;48.216;12.396;2022-12-15T03:36:05;-0.50;88.70
70366;DHT22;57787;48.216;12.396;2022-12-15T03:38:32;-0.50;88.90
70366;DHT22;57787;48.216;12.396;2022-12-15T03:40:59;-0.50;88.80
70366;DHT22;57787;48.216;12.396;2022-12-15T03:43:26;-0.50;88.80
70366;DHT22;57787;48.216;12.396;2022-12-15T03:45:56;-0.50;88.80
70366;DHT22;57787;48.216;12.396;2022-12-15T03:48:23;-0.50;88.90
70366;DHT22;57787;48.216;12.396;2022-12-15T03:50:50;-0.50;88.90
70366;DHT22;57787;48.216;12.396;2022-12-15T03:53:17;-0.60;88.80
70366;DHT22;57787;48.216;12.396;2022-12-15T03:55:45;-0.50;89.10
70366;DHT22;57787;48.216;12.396;2022-12-15T03:58:11;-0.60;89.00
70366;DHT22;57787;48.216;12.396;2022-12-15T04:00:38;-0.60;89.00
70366;DHT22;57787;48.216;12.396;2022-12-15T04:03:05;-0.60;88.90
70366;DHT22;57787;48.216;12.396;2022-12-15T04:05:33;-0.60;88.90
70366;DHT22;57787;48.216;12.396;2022-12-15T04:08:01;-0.70;88.70
70366;DHT22;57787;48.216;12.396;2022-12-15T04:10:30;-0.70;88.70
70366;DHT22;57787;48.216;12.396;2022-12-15T04:13:03;-0.60;88.70
70366;DHT22;57787;48.216;12.396;2022-12-15T04:15:31;-0.70;88.60
70366;DHT22;57787;48.216;12.396;2022-12-15T04:17:59;-0.70;88.70
70366;DHT22;57787;48.216;12.396;2022-12-15T04:20:26;-0.70;88.60
70366;DHT22;57787;48.216;12.396;2022-12-15T04:22:53;-0.70;88.50
70366;DHT22;57787;48.216;12.396;2022-12-15T04:25:22;-0.70;88.40
70366;DHT22;57787;48.216;12.396;2022-12-15T04:28:10;-0.70;88.60
70366;DHT22;57787;48.216;12.396;2022-12-15T04:31:11;-0.70;88.60
70366;DHT22;57787;48.216;12.396;2022-12-15T04:34:01;-0.70;88.30
70366;DHT22;57787;48.216;12.396;2022-12-15T04:36:51;-0.70;88.10
70366;DHT22;57787;48.216;12.396;2022-12-15T04:39:39;-0.80;87.90
70366;DHT22;57787;48.216;12.396;2022-12-15T04:42:26;-0.80;88.00
70366;DHT22;57787;48.216;12.396;2022-12-15T04:45:11;-0.80;88.10
70366;DHT22;57787;48.216;12.396;2022-12-15T04:47:58;-0.80;88.20
70366;DHT22;57787;48.216;12.396;2022-12-15T04:50:43;-0.80;88.30
70366;DHT22;57787;48.216;12.396;2022-12-15T04:53:29;-0.80;88.20
70366;DHT22;57787;48.216;12.396;2022-12-15T04:56:15;-0.80;88.30
70366;DHT22;57787;48.216;12.396;2022-12-15T04:59:01;-0.80;88.20
70366;DHT22;57787;48.216;12.396;2022-12-15T05:01:46;-0.80;88.40
70366;DHT22;57787;48.216;12.396;2022-12-15T05:04:32;-0.80;88.50
70366;DHT22;57787;48.216;12.396;2022-12-15T05:07:24;-0.80;88.60
70366;DHT22;57787;48.216;12.396;2022-12-15T05:10:09;-0.80;88.50
70366;DHT22;57787;48.216;12.396;2022-12-15T05:13:06;-0.80;88.10
70366;DHT22;57787;48.216;12.396;2022-12-15T05:15:52;-0.80;88.30
70366;DHT22;57787;48.216;12.396;2022-12-15T05:18:37;-0.80;88.00
70366;DHT22;57787;48.216;12.396;2022-12-15T05:21:22;-0.80;87.80
70366;DHT22;57787;48.216;12.396;2022-12-15T05:24:08;-0.80;87.80
70366;DHT22;57787;48.216;12.396;2022-12-15T05:26:54;-0.90;87.60
70366;DHT22;57787;48.216;12.396;2022-12-15T05:29:39;-0.80;88.00
70366;DHT22;57787;48.216;12.396;2022-12-15T05:32:25;-0.80;88.00
70366;DHT22;57787;48.216;12.396;2022-12-15T05:34:52;-0.80;88.20
70366;DHT22;57787;48.216;12.396;2022-12-15T05:37:19;-0.80;88.30
70366;DHT22;57787;48.216;12.396;2022-12-15T05:39:46;-0.80;88.10
70366;DHT22;57787;48.216;12.396;2022-12-15T05:42:13;-0.80;88.10
70366;DHT22;57787;48.216;12.396;2022-12-15T05:44:43;-0.80;87.90
70366;DHT22;57787;48.216;12.396;2022-12-15T05:47:10;-0.90;87.90
70366;DHT22;57787;48.216;12.396;2022-12-15T05:49:37;-0.90;88.10
70366;DHT22;57787;48.216;12.396;2022-12-15T05:52:05;-0.90;88.30
70366;DHT22;57787;48.216;12.396;2022-12-15T05:54:34;-0.90;88.40
70366;DHT22;57787;48.216;12.396;2022-12-15T05:57:01;-0.90;88.40
70366;DHT22;57787;48.216;12.396;2022-12-15T05:59:28;-0.90;88.50
70366;DHT22;57787;48.216;12.396;2022-12-15T06:01:56;-0.90;88.00
70366;DHT22;57787;48.216;12.396;2022-12-15T06:04:22;-1.00;87.80
70366;DHT22;57787;48.216;12.396;2022-12-15T06:06:49;-1.00;87.80
70366;DHT22;57787;48.216;12.396;2022-12-15T06:09:16;-1.00;87.80
70366;DHT22;57787;48.216;12.396;2022-12-15T06:11:43;-1.00;87.90
70366;DHT22;57787;48.216;12.396;2022-12-15T06:14:10;-1.00;88.00
70366;DHT22;57787;48.216;12.396;2022-12-15T06:16:37;-1.00;88.10
70366;DHT22;57787;48.216;12.396;2022-12-15T06:19:16;-1.00;88.10
70366;DHT22;57787;48.216;12.396;2022-12-15T06:21:43;-0.90;88.40
70366;DHT22;57787;48.216;12.396;2022-12-15T06:24:10;-1.00;88.20
70366;DHT22;57787;48.216;12.396;2022-12-15T06:26:38;-0.90;88.30
70366;DHT22;57787;48.216;12.396;2022-12-15T06:29:07;-0.90;88.20
70366;DHT22;57787;48.216;12.396;2022-12-15T06:31:35;-0.90;88.30
70366;DHT22;57787;48.216;12.396;2022-12-15T06:34:04;-0.90;88.20
70366;DHT22;57787;48.216;12.396;2022-12-15T06:36:33;-0.90;88.30
70366;DHT22;57787;48.216;12.396;2022-12-15T06:39:02;-0.90;88.30
70366;DHT22;57787;48.216;12.396;2022-12-15T06:41:31;-0.90;88.20
70366;DHT22;57787;48.216;12.396;2022-12-15T06:43:59;-0.90;88.20
70366;DHT22;57787;48.216;12.396;2022-12-15T06:46:28;-1.00;88.30
70366;DHT22;57787;48.216;12.396;2022-12-15T06:48:56;-0.90;88.20
70366;DHT22;57787;48.216;12.396;2022-12-15T06:51:24;-1.00;88.20
70366;DHT22;57787;48.216;12.396;2022-12-15T06:53:50;-0.90;88.10
70366;DHT22;57787;48.216;12.396;2022-12-15T06:56:30;-1.00;88.20
70366;DHT22;57787;48.216;12.396;2022-12-15T06:59:01;-0.90;88.30
70366;DHT22;57787;48.216;12.396;2022-12-15T07:01:30;-0.90;88.50
70366;DHT22;57787;48.216;12.396;2022-12-15T07:03:59;-1.00;88.40
70366;DHT22;57787;48.216;12.396;2022-12-15T07:06:32;-1.00;88.40
70366;DHT22;57787;48.216;12.396;2022-12-15T07:09:03;-1.00;88.50
70366;DHT22;57787;48.216;12.396;2022-12-15T07:11:32;-1.00;88.40
70366;DHT22;57787;48.216;12.396;2022-12-15T07:13:59;-0.90;88.40
70366;DHT22;57787;48.216;12.396;2022-12-15T07:16:26;-0.90;88.30
70366;DHT22;57787;48.216;12.396;2022-12-15T07:18:56;-0.90;88.50
70366;DHT22;57787;48.216;12.396;2022-12-15T07:21:24;-0.90;88.80
70366;DHT22;57787;48.216;12.396;2022-12-15T07:23:53;-0.80;88.70
70366;DHT22;57787;48.216;12.396;2022-12-15T07:26:23;-0.80;88.50
70366;DHT22;57787;48.216;12.396;2022-12-15T07:28:50;-0.80;88.50
70366;DHT22;57787;48.216;12.396;2022-12-15T07:31:20;-0.70;88.50
70366;DHT22;57787;48.216;12.396;2022-12-15T07:33:47;-0.70;88.40
70366;DHT22;57787;48.216;12.396;2022-12-15T07:36:14;-0.70;87.80
70366;DHT22;57787;48.216;12.396;2022-12-15T07:38:41;-0.70;87.80
70366;DHT22;57787;48.216;12.396;2022-12-15T07:41:09;-0.60;87.40
70366;DHT22;57787;48.216;12.396;2022-12-15T07:43:37;-0.60;87.20
70366;DHT22;57787;48.216;12.396;2022-12-15T07:46:05;-0.60;87.30
70366;DHT22;57787;48.216;12.396;2022-12-15T07:48:32;-0.50;87.10
70366;DHT22;57787;48.216;12.396;2022-12-15T07:51:04;-0.50;87.50
70366;DHT22;57787;48.216;12.396;2022-12-15T07:53:38;-0.50;87.10
70366;DHT22;57787;48.216;12.396;2022-12-15T07:56:06;-0.40;86.90
70366;DHT22;57787;48.216;12.396;2022-12-15T07:58:36;-0.40;86.70
70366;DHT22;57787;48.216;12.396;2022-12-15T08:01:06;-0.30;86.50
70366;DHT22;57787;48.216;12.396;2022-12-15T08:03:34;-0.30;86.00
70366;DHT22;57787;48.216;12.396;2022-12-15T08:06:03;-0.30;85.90
70366;DHT22;57787;48.216;12.396;2022-12-15T08:08:31;-0.20;86.30
70366;DHT22;57787;48.216;12.396;2022-12-15T08:11:03;-0.10;86.40
70366;DHT22;57787;48.216;12.396;2022-12-15T08:13:30;-0.10;86.10
70366;DHT22;57787;48.216;12.396;2022-12-15T08:16:18;0.00;85.90
70366;DHT22;57787;48.216;12.396;2022-12-15T08:18:45;0.00;85.40
70366;DHT22;57787;48.216;12.396;2022-12-15T08:21:12;0.00;85.10
70366;DHT22;57787;48.216;12.396;2022-12-15T08:23:40;0.00;84.60
70366;DHT22;57787;48.216;12.396;2022-12-15T08:26:09;0.00;85.00
70366;DHT22;57787;48.216;12.396;2022-12-15T08:28:38;0.00;85.10
70366;DHT22;57787;48.216;12.396;2022-12-15T08:31:07;0.00;85.80
70366;DHT22;57787;48.216;12.396;2022-12-15T08:33:36;0.00;85.20
70366;DHT22;57787;48.216;12.396;2022-12-15T08:36:05;0.00;84.90
70366;DHT22;57787;48.216;12.396;2022-12-15T08:38:34;0.10;85.10
70366;DHT22;57787;48.216;12.396;2022-12-15T08:43:37;0.10;84.60
70366;DHT22;57787;48.216;12.396;2022-12-15T08:46:23;0.20;84.60
70366;DHT22;57787;48.216;12.396;2022-12-15T08:48:51;0.30;84.40
70366;DHT22;57787;48.216;12.396;2022-12-15T08:51:19;0.30;83.50
70366;DHT22;57787;48.216;12.396;2022-12-15T08:54:00;0.30;83.60
70366;DHT22;57787;48.216;12.396;2022-12-15T08:56:28;0.30;83.30
70366;DHT22;57787;48.216;12.396;2022-12-15T08:59:01;0.30;83.50
70366;DHT22;57787;48.216;12.396;2022-12-15T09:01:35;0.30;82.50
70366;DHT22;57787;48.216;12.396;2022-12-15T09:04:06;0.30;82.10
70366;DHT22;57787;48.216;12.396;2022-12-15T09:06:35;0.30;83.20
70366;DHT22;57787;48.216;12.396;2022-12-15T09:09:07;0.40;83.30
70366;DHT22;57787;48.216;12.396;2022-12-15T09:11:35;0.50;82.70
70366;DHT22;57787;48.216;12.396;2022-12-15T09:14:03;0.60;83.70
70366;DHT22;57787;48.216;12.396;2022-12-15T09:16:34;0.60;82.80
70366;DHT22;57787;48.216;12.396;2022-12-15T09:19:08;0.70;83.70
70366;DHT22;57787;48.216;12.396;2022-12-15T09:21:36;0.80;82.80
70366;DHT22;57787;48.216;12.396;2022-12-15T09:24:10;0.90;82.80
70366;DHT22;57787;48.216;12.396;2022-12-15T09:26:50;1.00;82.20
70366;DHT22;57787;48.216;12.396;2022-12-15T09:29:24;1.10;81.70
70366;DHT22;57787;48.216;12.396;2022-12-15T09:31:59;1.10;80.50
70366;DHT22;57787;48.216;12.396;2022-12-15T09:34:30;1.10;81.10
70366;DHT22;57787;48.216;12.396;2022-12-15T09:36:58;1.20;81.40
70366;DHT22;57787;48.216;12.396;2022-12-15T09:39:27;1.20;81.90
70366;DHT22;57787;48.216;12.396;2022-12-15T09:41:58;1.20;80.70
70366;DHT22;57787;48.216;12.396;2022-12-15T09:44:28;1.20;80.40
70366;DHT22;57787;48.216;12.396;2022-12-15T09:52:56;1.20;80.90
70366;DHT22;57787;48.216;12.396;2022-12-15T09:55:30;1.20;81.30
70366;DHT22;57787;48.216;12.396;2022-12-15T10:00:57;1.30;80.70
70366;DHT22;57787;48.216;12.396;2022-12-15T10:06:53;1.30;80.70
70366;DHT22;57787;48.216;12.396;2022-12-15T10:09:24;1.30;80.50
70366;DHT22;57787;48.216;12.396;2022-12-15T10:12:05;1.30;80.30
70366;DHT22;57787;48.216;12.396;2022-12-15T10:20:22;1.50;80.00
70366;DHT22;57787;48.216;12.396;2022-12-15T10:22:55;1.50;80.40
70366;DHT22;57787;48.216;12.396;2022-12-15T10:25:29;1.50;79.70
70366;DHT22;57787;48.216;12.396;2022-12-15T10:31:18;1.60;80.10
70366;DHT22;57787;48.216;12.396;2022-12-15T10:37:04;1.70;80.00
70366;DHT22;57787;48.216;12.396;2022-12-15T10:39:44;1.90;79.30
70366;DHT22;57787;48.216;12.396;2022-12-15T10:42:22;1.90;79.60
70366;DHT22;57787;48.216;12.396;2022-12-15T10:44:56;1.90;79.40
70366;DHT22;57787;48.216;12.396;2022-12-15T10:47:32;1.90;78.50
70366;DHT22;57787;48.216;12.396;2022-12-15T10:50:21;1.90;78.50
70366;DHT22;57787;48.216;12.396;2022-12-15T10:52:55;1.90;78.50
70366;DHT22;57787;48.216;12.396;2022-12-15T10:55:36;1.80;78.70
70366;DHT22;57787;48.216;12.396;2022-12-15T10:58:26;1.80;78.80
70366;DHT22;57787;48.216;12.396;2022-12-15T11:01:17;1.90;79.60
70366;DHT22;57787;48.216;12.396;2022-12-15T11:06:32;2.10;80.50
70366;DHT22;57787;48.216;12.396;2022-12-15T11:09:34;2.30;78.10
70366;DHT22;57787;48.216;12.396;2022-12-15T11:12:19;2.50;77.60
70366;DHT22;57787;48.216;12.396;2022-12-15T11:15:40;2.60;77.20
70366;DHT22;57787;48.216;12.396;2022-12-15T11:18:17;2.70;76.10
70366;DHT22;57787;48.216;12.396;2022-12-15T11:21:04;2.80;76.20
70366;DHT22;57787;48.216;12.396;2022-12-15T11:29:40;3.00;77.60
70366;DHT22;57787;48.216;12.396;2022-12-15T11:32:21;3.00;75.30
70366;DHT22;57787;48.216;12.396;2022-12-15T11:34:57;2.90;74.60
70366;DHT22;57787;48.216;12.396;2022-12-15T11:37:37;2.70;74.60
70366;DHT22;57787;48.216;12.396;2022-12-15T11:46:23;2.60;76.00
70366;DHT22;57787;48.216;12.396;2022-12-15T11:52:26;2.40;76.10
70366;DHT22;57787;48.216;12.396;2022-12-15T11:55:24;2.50;76.80
70366;DHT22;57787;48.216;12.396;2022-12-15T12:03:55;2.40;76.40
70366;DHT22;57787;48.216;12.396;2022-12-15T12:09:35;2.40;76.70
70366;DHT22;57787;48.216;12.396;2022-12-15T12:17:49;2.60;76.40
70366;DHT22;57787;48.216;12.396;2022-12-15T12:20:22;2.50;76.30
70366;DHT22;57787;48.216;12.396;2022-12-15T12:23:19;2.60;77.20
70366;DHT22;57787;48.216;12.396;2022-12-15T12:26:13;2.50;76.70
70366;DHT22;57787;48.216;12.396;2022-12-15T12:37:57;2.30;77.20
70366;DHT22;57787;48.216;12.396;2022-12-15T12:40:51;2.30;77.00
70366;DHT22;57787;48.216;12.396;2022-12-15T12:43:33;2.30;77.60
70366;DHT22;57787;48.216;12.396;2022-12-15T12:46:18;2.20;77.20
70366;DHT22;57787;48.216;12.396;2022-12-15T12:49:31;2.20;77.60
70366;DHT22;57787;48.216;12.396;2022-12-15T12:52:03;2.10;77.00
70366;DHT22;57787;48.216;12.396;2022-12-15T12:57:03;2.00;78.10
70366;DHT22;57787;48.216;12.396;2022-12-15T13:07:56;2.00;78.80
70366;DHT22;57787;48.216;12.396;2022-12-15T13:10:47;1.90;78.90
70366;DHT22;57787;48.216;12.396;2022-12-15T13:19:00;1.90;78.70
70366;DHT22;57787;48.216;12.396;2022-12-15T13:24:32;1.70;79.30
70366;DHT22;57787;48.216;12.396;2022-12-15T13:30:12;1.70;80.00
70366;DHT22;57787;48.216;12.396;2022-12-15T13:32:49;1.70;80.00
70366;DHT22;57787;48.216;12.396;2022-12-15T13:35:28;1.70;80.80
70366;DHT22;57787;48.216;12.396;2022-12-15T13:38:03;1.60;79.50
70366;DHT22;57787;48.216;12.396;2022-12-15T13:46:10;1.40;80.20
70366;DHT22;57787;48.216;12.396;2022-12-15T13:48:50;1.40;80.50
70366;DHT22;57787;48.216;12.396;2022-12-15T13:51:30;1.40;80.50
70366;DHT22;57787;48.216;12.396;2022-12-15T13:54:18;1.30;80.80
70366;DHT22;57787;48.216;12.396;2022-12-15T13:57:00;1.30;80.80
70366;DHT22;57787;48.216;12.396;2022-12-15T13:59:53;1.20;80.90
70366;DHT22;57787;48.216;12.396;2022-12-15T14:03:11;1.10;81.30
70366;DHT22;57787;48.216;12.396;2022-12-15T14:05:51;1.10;81.60
70366;DHT22;57787;48.216;12.396;2022-12-15T14:08:36;1.00;81.80
70366;DHT22;57787;48.216;12.396;2022-12-15T14:11:13;1.00;81.70
70366;DHT22;57787;48.216;12.396;2022-12-15T14:14:50;0.90;82.00
70366;DHT22;57787;48.216;12.396;2022-12-15T14:21:56;0.90;82.40
70366;DHT22;57787;48.216;12.396;2022-12-15T14:25:01;0.90;82.60
70366;DHT22;57787;48.216;12.396;2022-12-15T14:27:59;0.80;82.70
70366;DHT22;57787;48.216;12.396;2022-12-15T14:30:36;0.80;83.00
70366;DHT22;57787;48.216;12.396;2022-12-15T14:33:14;0.80;82.90
70366;DHT22;57787;48.216;12.396;2022-12-15T14:35:48;0.70;82.90
70366;DHT22;57787;48.216;12.396;2022-12-15T14:41:19;0.70;83.70
70366;DHT22;57787;48.216;12.396;2022-12-15T14:43:56;0.60;83.70
70366;DHT22;57787;48.216;12.396;2022-12-15T14:46:47;0.60;83.80
70366;DHT22;57787;48.216;12.396;2022-12-15T14:49:28;0.50;83.90
70366;DHT22;57787;48.216;12.396;2022-12-15T14:52:02;0.50;84.10
70366;DHT22;57787;48.216;12.396;2022-12-15T14:54:50;0.50;84.30
70366;DHT22;57787;48.216;12.396;2022-12-15T14:57:50;0.50;84.20
70366;DHT22;57787;48.216;12.396;2022-12-15T15:00:33;0.40;84.50
70366;DHT22;57787;48.216;12.396;2022-12-15T15:05:58;0.30;84.90
70366;DHT22;57787;48.216;12.396;2022-12-15T15:08:49;0.30;85.10
70366;DHT22;57787;48.216;12.396;2022-12-15T15:11:22;0.30;85.10
70366;DHT22;57787;48.216;12.396;2022-12-15T15:13:54;0.30;84.80
70366;DHT22;57787;48.216;12.396;2022-12-15T15:16:22;0.20;85.30
70366;DHT22;57787;48.216;12.396;2022-12-15T15:18:53;0.20;85.40
70366;DHT22;57787;48.216;12.396;2022-12-15T15:21:44;0.20;85.30
70366;DHT22;57787;48.216;12.396;2022-12-15T15:24:49;0.10;85.40
70366;DHT22;57787;48.216;12.396;2022-12-15T15:27:38;0.10;85.40
70366;DHT22;57787;48.216;12.396;2022-12-15T15:30:19;0.10;85.40
70366;DHT22;57787;48.216;12.396;2022-12-15T15:35:32;0.00;85.80
70366;DHT22;57787;48.216;12.396;2022-12-15T15:38:28;0.00;85.80
70366;DHT22;57787;48.216;12.396;2022-12-15T15:41:25;0.00;86.10
70366;DHT22;57787;48.216;12.396;2022-12-15T15:43:48;0.00;86.30
70366;DHT22;57787;48.216;12.396;2022-12-15T15:46:18;0.00;86.50
70366;DHT22;57787;48.216;12.396;2022-12-15T15:48:56;0.00;86.40
70366;DHT22;57787;48.216;12.396;2022-12-15T15:51:25;0.00;86.70
70366;DHT22;57787;48.216;12.396;2022-12-15T15:53:57;0.00;86.70
70366;DHT22;57787;48.216;12.396;2022-12-15T15:56:25;0.00;86.70
70366;DHT22;57787;48.216;12.396;2022-12-15T15:58:53;0.00;86.80
70366;DHT22;57787;48.216;12.396;2022-12-15T16:01:19;0.00;86.90
70366;DHT22;57787;48.216;12.396;2022-12-15T16:03:47;0.00;86.90
70366;DHT22;57787;48.216;12.396;2022-12-15T16:06:19;0.00;86.80
70366;DHT22;57787;48.216;12.396;2022-12-15T16:08:50;0.00;86.70
70366;DHT22;57787;48.216;12.396;2022-12-15T16:11:17;0.00;86.90
70366;DHT22;57787;48.216;12.396;2022-12-15T16:13:47;0.00;87.00
70366;DHT22;57787;48.216;12.396;2022-12-15T16:16:20;0.00;87.00
70366;DHT22;57787;48.216;12.396;2022-12-15T16:18:48;0.00;87.00
70366;DHT22;57787;48.216;12.396;2022-12-15T16:21:15;0.00;87.00
70366;DHT22;57787;48.216;12.396;2022-12-15T16:23:45;0.00;86.90
70366;DHT22;57787;48.216;12.396;2022-12-15T16:26:15;0.00;87.10
70366;DHT22;57787;48.216;12.396;2022-12-15T16:28:44;0.00;87.30
70366;DHT22;57787;48.216;12.396;2022-12-15T16:31:15;0.00;87.30
70366;DHT22;57787;48.216;12.396;2022-12-15T16:33:52;0.00;87.30
70366;DHT22;57787;48.216;12.396;2022-12-15T16:36:21;0.00;87.30
70366;DHT22;57787;48.216;12.396;2022-12-15T16:38:49;0.00;87.40
70366;DHT22;57787;48.216;12.396;2022-12-15T16:41:16;0.00;87.30
70366;DHT22;57787;48.216;12.396;2022-12-15T16:43:43;0.00;87.40
70366;DHT22;57787;48.216;12.396;2022-12-15T16:46:14;0.00;87.50
70366;DHT22;57787;48.216;12.396;2022-12-15T16:48:41;0.00;87.40
70366;DHT22;57787;48.216;12.396;2022-12-15T16:51:33;0.00;87.30
70366;DHT22;57787;48.216;12.396;2022-12-15T16:54:04;0.00;87.50
70366;DHT22;57787;48.216;12.396;2022-12-15T16:56:31;0.00;87.60
70366;DHT22;57787;48.216;12.396;2022-12-15T16:58:59;0.00;87.50
70366;DHT22;57787;48.216;12.396;2022-12-15T17:01:48;0.00;87.50
70366;DHT22;57787;48.216;12.396;2022-12-15T17:04:16;0.00;87.60
70366;DHT22;57787;48.216;12.396;2022-12-15T17:06:45;0.00;87.70
70366;DHT22;57787;48.216;12.396;2022-12-15T17:09:21;0.00;87.80
70366;DHT22;57787;48.216;12.396;2022-12-15T17:11:49;0.00;87.70
70366;DHT22;57787;48.216;12.396;2022-12-15T17:14:16;0.00;87.80
70366;DHT22;57787;48.216;12.396;2022-12-15T17:16:43;0.00;87.90
70366;DHT22;57787;48.216;12.396;2022-12-15T17:19:10;0.00;87.80
70366;DHT22;57787;48.216;12.396;2022-12-15T17:21:47;0.00;87.70
70366;DHT22;57787;48.216;12.396;2022-12-15T17:24:16;0.00;87.70
70366;DHT22;57787;48.216;12.396;2022-12-15T17:26:44;0.00;87.90
70366;DHT22;57787;48.216;12.396;2022-12-15T17:29:21;0.00;87.80
70366;DHT22;57787;48.216;12.396;2022-12-15T17:31:49;0.00;87.90
70366;DHT22;57787;48.216;12.396;2022-12-15T17:34:27;0.00;88.10
70366;DHT22;57787;48.216;12.396;2022-12-15T17:37:02;0.00;88.10
70366;DHT22;57787;48.216;12.396;2022-12-15T17:39:32;0.00;88.20
70366;DHT22;57787;48.216;12.396;2022-12-15T17:41:59;0.00;88.20
70366;DHT22;57787;48.216;12.396;2022-12-15T17:44:30;0.00;88.40
70366;DHT22;57787;48.216;12.396;2022-12-15T17:47:02;0.00;88.40
70366;DHT22;57787;48.216;12.396;2022-12-15T17:49:30;0.00;88.30
70366;DHT22;57787;48.216;12.396;2022-12-15T17:52:06;0.00;88.40
70366;DHT22;57787;48.216;12.396;2022-12-15T17:54:33;0.10;88.30
70366;DHT22;57787;48.216;12.396;2022-12-15T17:57:01;0.00;88.20
70366;DHT22;57787;48.216;12.396;2022-12-15T17:59:32;0.00;88.20
70366;DHT22;57787;48.216;12.396;2022-12-15T18:02:02;0.10;88.30
70366;DHT22;57787;48.216;12.396;2022-12-15T18:04:28;0.10;88.30
70366;DHT22;57787;48.216;12.396;2022-12-15T18:06:56;0.10;88.20
70366;DHT22;57787;48.216;12.396;2022-12-15T18:09:28;0.10;88.30
70366;DHT22;57787;48.216;12.396;2022-12-15T18:11:55;0.10;88.40
70366;DHT22;57787;48.216;12.396;2022-12-15T18:14:29;0.10;88.40
70366;DHT22;57787;48.216;12.396;2022-12-15T18:16:56;0.10;88.60
70366;DHT22;57787;48.216;12.396;2022-12-15T18:19:23;0.10;88.70
70366;DHT22;57787;48.216;12.396;2022-12-15T18:21:57;0.20;88.60
70366;DHT22;57787;48.216;12.396;2022-12-15T18:24:25;0.10;88.80
70366;DHT22;57787;48.216;12.396;2022-12-15T18:26:53;0.20;89.10
70366;DHT22;57787;48.216;12.396;2022-12-15T18:29:20;0.20;89.10
70366;DHT22;57787;48.216;12.396;2022-12-15T18:31:48;0.20;89.20